createdAt,value
2019-02-28T00:02:04.847Z,16.80
2019-02-28T00:04:33.198Z,17.03
2019-02-28T00:07:01.559Z,17.37
2019-02-28T00:09:29.921Z,17.97
2019-02-28T00:12:00.479Z,16.90
2019-02-28T00:14:28.834Z,17.57
2019-02-28T00:16:57.393Z,17.10
2019-02-28T00:19:25.762Z,16.83
2019-02-28T00:21:54.124Z,17.37
2019-02-28T00:24:22.484Z,17.37
2019-02-28T00:26:50.848Z,17.23
2019-02-28T00:29:19.358Z,17.70
2019-02-28T00:31:50.027Z,17.23
2019-02-28T00:34:17.686Z,17.87
2019-02-28T00:36:46.027Z,17.23
2019-02-28T00:39:14.386Z,18.47
2019-02-28T00:41:44.480Z,19.13
2019-02-28T00:44:12.748Z,18.53
2019-02-28T00:46:45.225Z,17.80
2019-02-28T00:49:11.252Z,17.50
2019-02-28T00:51:39.587Z,17.23
2019-02-28T00:54:08.534Z,18.30
2019-02-28T00:56:37.786Z,16.73
2019-02-28T00:59:06.136Z,18.17
2019-02-28T01:01:34.508Z,17.83
2019-02-28T01:04:02.845Z,17.33
2019-02-28T01:06:31.178Z,17.97
2019-02-28T01:08:59.510Z,18.03
2019-02-28T01:11:27.855Z,18.73
2019-02-28T01:13:58.046Z,18.20
2019-02-28T01:16:26.214Z,18.00
2019-02-28T01:18:54.666Z,19.00
2019-02-28T01:21:23.932Z,18.53
2019-02-28T01:23:53.016Z,19.90
2019-02-28T01:26:21.370Z,18.77
2019-02-28T01:28:49.742Z,18.97
2019-02-28T01:31:18.088Z,17.57
2019-02-28T01:33:46.437Z,18.27
2019-02-28T01:36:15.642Z,18.73
2019-02-28T01:38:44.802Z,17.40
2019-02-28T01:41:13.228Z,18.97
2019-02-28T01:43:41.562Z,18.40
2019-02-28T01:46:10.002Z,19.27
2019-02-28T01:48:38.342Z,19.80
2019-02-28T01:51:06.695Z,18.30
2019-02-28T01:53:35.076Z,18.53
2019-02-28T01:56:03.545Z,19.10
2019-02-28T01:58:31.880Z,17.93
2019-02-28T02:01:00.208Z,19.00
2019-02-28T02:03:28.552Z,17.37
2019-02-28T02:05:56.897Z,18.43
2019-02-28T02:08:25.319Z,18.27
2019-02-28T02:10:55.964Z,20.10
2019-02-28T02:13:23.805Z,17.63
2019-02-28T02:15:52.157Z,17.63
2019-02-28T02:18:20.507Z,17.23
2019-02-28T02:20:48.886Z,19.30
2019-02-28T02:23:18.202Z,19.07
2019-02-28T02:25:47.376Z,19.33
2019-02-28T02:28:15.717Z,17.97
2019-02-28T02:30:50.481Z,17.93
2019-02-28T02:33:15.511Z,18.60
2019-02-28T02:35:44.081Z,17.93
2019-02-28T02:38:12.415Z,18.73
2019-02-28T02:40:40.751Z,18.37
2019-02-28T02:43:11.887Z,17.93
2019-02-28T02:45:43.460Z,18.30
2019-02-28T02:48:10.237Z,17.63
2019-02-28T02:50:38.587Z,18.70
2019-02-28T02:53:07.050Z,18.70
2019-02-28T02:55:35.440Z,17.43
2019-02-28T02:58:03.812Z,17.27
2019-02-28T03:00:32.144Z,18.43
2019-02-28T03:03:00.463Z,18.80
2019-02-28T03:05:35.321Z,18.00
2019-02-28T03:08:00.057Z,18.80
2019-02-28T03:10:28.791Z,19.40
2019-02-28T03:12:57.138Z,19.03
2019-02-28T03:18:47.251Z,18.33
2019-02-28T03:21:16.504Z,17.77
2019-02-28T03:23:45.212Z,18.17
2019-02-28T03:26:13.531Z,18.20
2019-02-28T03:28:41.872Z,17.57
2019-02-28T03:31:14.420Z,17.70
2019-02-28T03:33:40.203Z,19.07
2019-02-28T03:36:08.529Z,18.90
2019-02-28T03:38:36.854Z,19.70
2019-02-28T03:41:05.278Z,18.80
2019-02-28T03:43:33.725Z,18.80
2019-02-28T03:46:02.071Z,19.07
2019-02-28T03:48:34.667Z,18.87
2019-02-28T03:51:00.385Z,18.77
2019-02-28T03:53:28.723Z,19.30
2019-02-28T03:55:57.155Z,18.00
2019-02-28T03:58:25.499Z,19.20
2019-02-28T04:00:53.922Z,18.97
2019-02-28T04:03:22.247Z,19.23
2019-02-28T04:05:50.599Z,18.30
2019-02-28T04:08:18.942Z,18.67
2019-02-28T04:10:47.290Z,18.73
2019-02-28T04:13:19.130Z,19.00
2019-02-28T04:16:02.442Z,19.70
2019-02-28T04:18:15.802Z,18.93
2019-02-28T04:20:44.174Z,18.13
2019-02-28T04:23:12.630Z,18.83
2019-02-28T04:25:41.006Z,18.90
2019-02-28T04:28:09.363Z,19.50
2019-02-28T04:30:42.580Z,18.10
2019-02-28T04:33:07.779Z,19.63
2019-02-28T04:35:36.229Z,20.30
2019-02-28T04:38:04.689Z,18.97
2019-02-28T04:40:33.011Z,18.83
2019-02-28T04:43:01.374Z,19.93
2019-02-28T04:45:29.724Z,18.53
2019-02-28T04:47:58.588Z,18.57
2019-02-28T04:50:31.251Z,19.23
2019-02-28T04:52:57.268Z,18.10
2019-02-28T04:55:25.590Z,18.07
2019-02-28T04:57:54.040Z,18.67
2019-02-28T05:00:22.431Z,17.83
2019-02-28T05:02:53.868Z,16.40
2019-02-28T05:05:20.750Z,17.63
2019-02-28T05:07:49.103Z,17.73
2019-02-28T05:10:19.273Z,18.07
2019-02-28T05:12:47.408Z,18.13
2019-02-28T05:15:15.858Z,18.10
2019-02-28T05:17:44.166Z,17.53
2019-02-28T05:20:12.852Z,18.30
2019-02-28T05:22:41.268Z,19.37
2019-02-28T05:25:09.751Z,18.13
2019-02-28T05:27:38.097Z,17.83
2019-02-28T05:30:07.682Z,18.97
2019-02-28T05:32:36.379Z,18.17
2019-02-28T05:35:04.916Z,18.40
2019-02-28T05:37:33.244Z,18.50
2019-02-28T05:40:05.415Z,17.97
2019-02-28T05:42:31.563Z,19.33
2019-02-28T05:44:59.895Z,18.00
2019-02-28T05:47:29.372Z,19.13
2019-02-28T05:49:58.216Z,20.07
2019-02-28T05:52:26.550Z,19.13
2019-02-28T05:54:54.886Z,18.77
2019-02-28T05:57:23.255Z,19.93
2019-02-28T05:59:51.588Z,18.73
2019-02-28T06:02:22.578Z,20.87
2019-02-28T06:04:49.942Z,20.47
2019-02-28T06:07:18.278Z,19.43
2019-02-28T06:09:48.663Z,20.10
2019-02-28T06:12:16.607Z,20.27
2019-02-28T06:14:44.932Z,19.17
2019-02-28T06:17:13.368Z,20.07
2019-02-28T06:19:43.457Z,19.50
2019-02-28T06:22:12.284Z,19.07
2019-02-28T06:24:40.626Z,19.90
2019-02-28T06:27:08.954Z,21.43
2019-02-28T06:29:37.584Z,19.47
2019-02-28T06:32:06.178Z,19.33
2019-02-28T06:34:34.512Z,19.43
2019-02-28T06:37:03.583Z,20.17
2019-02-28T06:39:33.352Z,18.10
2019-02-28T06:42:01.683Z,20.50
2019-02-28T06:44:30.042Z,19.27
2019-02-28T06:46:58.455Z,20.67
2019-02-28T06:49:27.315Z,20.70
2019-02-28T06:51:55.832Z,20.73
2019-02-28T06:54:24.623Z,21.87
2019-02-28T06:56:54.121Z,20.60
2019-02-28T06:59:22.942Z,20.20
2019-02-28T07:01:56.644Z,19.30
2019-02-28T07:04:21.316Z,20.23
2019-02-28T07:06:49.682Z,20.50
2019-02-28T07:09:18.059Z,19.80
2019-02-28T07:11:46.399Z,19.97
2019-02-28T07:14:14.803Z,18.27
2019-02-28T07:16:43.153Z,19.23
2019-02-28T07:19:11.515Z,18.33
2019-02-28T07:21:43.899Z,19.80
2019-02-28T07:24:10.326Z,19.17
2019-02-28T07:26:38.656Z,18.10
2019-02-28T07:29:11.131Z,19.23
2019-02-28T07:31:37.099Z,17.97
2019-02-28T07:34:05.498Z,20.97
2019-02-28T07:36:33.866Z,23.67
2019-02-28T07:39:04.462Z,25.07
2019-02-28T07:41:32.229Z,20.10
2019-02-28T07:44:00.568Z,20.57
2019-02-28T07:46:28.900Z,20.43
2019-02-28T07:48:57.248Z,21.80
2019-02-28T07:51:26.414Z,21.60
2019-02-28T07:53:55.256Z,22.37
2019-02-28T07:56:23.954Z,28.03
2019-02-28T07:58:52.454Z,24.03
2019-02-28T08:01:20.800Z,22.67
2019-02-28T08:03:49.134Z,21.60
2019-02-28T08:06:17.520Z,21.00
2019-02-28T08:08:45.995Z,21.70
2019-02-28T08:11:14.343Z,22.73
2019-02-28T08:13:42.695Z,24.47
2019-02-28T08:16:11.051Z,24.63
2019-02-28T08:18:39.475Z,22.17
2019-02-28T08:21:08.706Z,22.70
2019-02-28T08:23:37.882Z,21.57
2019-02-28T08:26:06.231Z,23.03
2019-02-28T08:28:36.744Z,22.97
2019-02-28T08:31:04.663Z,21.87
2019-02-28T08:33:33.011Z,20.67
2019-02-28T08:36:01.332Z,21.53
2019-02-28T08:38:30.108Z,22.23
2019-02-28T08:40:59.667Z,25.47
2019-02-28T08:43:28.091Z,23.57
2019-02-28T08:45:56.739Z,20.53
2019-02-28T08:48:25.095Z,22.10
2019-02-28T08:50:55.795Z,21.50
2019-02-28T08:53:24.665Z,21.20
2019-02-28T08:55:53.470Z,21.17
2019-02-28T08:58:22.154Z,22.47
2019-02-28T09:00:51.085Z,21.13
2019-02-28T09:03:20.145Z,21.50
2019-02-28T09:05:48.992Z,22.63
2019-02-28T09:08:17.622Z,20.93
2019-02-28T09:10:47.136Z,22.27
2019-02-28T09:13:16.672Z,22.03
2019-02-28T09:15:45.691Z,22.43
2019-02-28T09:18:14.351Z,21.20
2019-02-28T09:20:45.101Z,21.70
2019-02-28T09:23:12.686Z,21.07
2019-02-28T09:25:41.001Z,23.20
2019-02-28T09:28:10.156Z,23.40
2019-02-28T09:30:39.934Z,22.77
2019-02-28T09:33:08.280Z,24.00
2019-02-28T09:35:36.615Z,23.17
2019-02-28T09:38:07.619Z,23.47
2019-02-28T09:40:35.195Z,23.17
2019-02-28T09:43:03.861Z,23.53
2019-02-28T09:45:33.057Z,25.27
2019-02-28T09:48:02.365Z,22.37
2019-02-28T09:50:33.092Z,24.73
2019-02-28T09:53:01.937Z,24.13
2019-02-28T09:55:34.291Z,23.97
2019-02-28T09:58:00.565Z,24.50
2019-02-28T10:00:29.402Z,24.93
2019-02-28T10:02:58.366Z,23.70
2019-02-28T10:05:27.084Z,24.93
2019-02-28T10:08:01.538Z,23.50
2019-02-28T10:10:26.697Z,24.43
2019-02-28T10:12:56.866Z,26.33
2019-02-28T10:15:25.165Z,24.87
2019-02-28T10:17:53.506Z,25.57
2019-02-28T10:20:26.320Z,25.33
2019-02-28T10:22:53.557Z,24.73
2019-02-28T10:25:21.948Z,24.07
2019-02-28T10:27:51.094Z,24.90
2019-02-28T10:30:30.808Z,24.17
2019-02-28T10:32:50.496Z,24.60
2019-02-28T10:35:19.750Z,25.30
2019-02-28T10:37:48.410Z,24.47
2019-02-28T10:40:18.713Z,23.43
2019-02-28T10:42:49.482Z,23.17
2019-02-28T10:45:18.274Z,21.53
2019-02-28T10:47:46.770Z,22.80
2019-02-28T10:50:16.687Z,22.23
2019-02-28T10:52:45.351Z,23.97
2019-02-28T10:55:14.845Z,21.17
2019-02-28T10:57:43.912Z,22.37
2019-02-28T11:00:14.152Z,20.87
2019-02-28T11:02:43.334Z,21.60
2019-02-28T11:05:18.846Z,21.93
2019-02-28T11:07:46.239Z,21.63
2019-02-28T11:10:15.979Z,19.60
2019-02-28T11:12:45.023Z,19.83
2019-02-28T11:15:14.775Z,19.30
2019-02-28T11:17:44.632Z,18.80
2019-02-28T11:20:21.815Z,17.73
2019-02-28T11:22:44.537Z,17.47
2019-02-28T11:25:13.490Z,18.50
2019-02-28T11:27:42.338Z,16.93
2019-02-28T11:30:13.343Z,16.60
2019-02-28T11:32:42.382Z,15.27
2019-02-28T11:35:11.508Z,14.90
2019-02-28T11:37:44.979Z,17.70
2019-02-28T11:40:11.423Z,17.03
2019-02-28T11:42:40.390Z,16.13
2019-02-28T11:45:12.767Z,13.63
2019-02-28T11:47:42.695Z,15.03
2019-02-28T11:50:11.946Z,14.23
2019-02-28T11:52:41.107Z,15.73
2019-02-28T11:55:10.423Z,14.93
2019-02-28T11:57:41.248Z,14.03
2019-02-28T12:00:13.459Z,12.00
2019-02-28T12:02:42.156Z,12.20
2019-02-28T12:05:12.318Z,12.10
2019-02-28T12:07:41.601Z,10.60
2019-02-28T12:10:10.242Z,10.23
2019-02-28T12:12:41.609Z,10.13
2019-02-28T12:15:09.523Z,10.83
2019-02-28T12:17:38.477Z,11.73
2019-02-28T12:20:07.822Z,12.70
2019-02-28T12:22:37.122Z,11.70
2019-02-28T12:25:07.656Z,11.50
2019-02-28T12:27:37.159Z,11.47
2019-02-28T12:30:06.563Z,12.03
2019-02-28T12:32:35.237Z,11.60
2019-02-28T12:35:04.243Z,11.40
2019-02-28T12:37:34.398Z,11.27
2019-02-28T12:40:03.872Z,10.50
2019-02-28T12:42:34.638Z,10.53
2019-02-28T12:45:03.038Z,8.97
2019-02-28T12:47:35.255Z,9.20
2019-02-28T12:50:05.063Z,9.07
2019-02-28T12:52:33.398Z,11.20
2019-02-28T12:55:03.992Z,9.93
2019-02-28T12:57:32.108Z,8.87
2019-02-28T13:00:00.854Z,9.80
2019-02-28T13:02:29.191Z,9.30
2019-02-28T13:04:57.815Z,8.23
2019-02-28T13:07:26.863Z,6.27
2019-02-28T13:09:55.867Z,3.03
2019-02-28T13:12:24.632Z,2.40
2019-02-28T13:14:54.743Z,2.30
2019-02-28T13:17:23.880Z,1.90
2019-02-28T13:19:53.159Z,2.17
2019-02-28T13:22:23.639Z,1.67
2019-02-28T13:24:52.671Z,2.07
2019-02-28T13:27:21.124Z,1.47
2019-02-28T13:29:49.436Z,2.03
2019-02-28T13:32:17.755Z,2.27
2019-02-28T13:34:46.177Z,1.70
2019-02-28T13:37:14.506Z,1.67
2019-02-28T13:39:44.713Z,2.17
2019-02-28T13:42:12.828Z,2.17
2019-02-28T13:44:41.175Z,1.73
2019-02-28T13:47:10.716Z,2.10
2019-02-28T13:49:39.541Z,1.83
2019-02-28T13:52:08.121Z,1.83
2019-02-28T13:54:38.080Z,1.70
2019-02-28T13:57:09.794Z,2.33
2019-02-28T13:59:36.823Z,2.00
2019-02-28T14:02:05.490Z,1.90
2019-02-28T14:04:34.252Z,2.07
2019-02-28T14:07:02.899Z,1.60
2019-02-28T14:09:31.614Z,2.07
2019-02-28T14:12:00.823Z,2.23
2019-02-28T14:14:29.590Z,2.23
2019-02-28T14:17:01.321Z,2.17
2019-02-28T14:19:29.050Z,1.80
2019-02-28T14:21:57.867Z,2.20
2019-02-28T14:24:27.626Z,1.80
2019-02-28T14:26:57.080Z,2.30
2019-02-28T14:29:25.915Z,2.43
2019-02-28T14:31:54.550Z,2.00
2019-02-28T14:34:26.220Z,2.60
2019-02-28T14:36:53.586Z,2.30
2019-02-28T14:39:22.607Z,2.10
2019-02-28T14:41:51.372Z,1.80
2019-02-28T14:44:20.084Z,1.70
2019-02-28T14:46:49.771Z,1.83
2019-02-28T14:49:19.543Z,1.97
2019-02-28T14:51:48.180Z,2.40
2019-02-28T14:54:16.870Z,2.53
2019-02-28T14:56:45.641Z,2.77
2019-02-28T14:59:14.157Z,2.00
2019-02-28T15:01:43.215Z,2.40
2019-02-28T15:04:11.931Z,1.83
2019-02-28T15:06:40.592Z,1.90
2019-02-28T15:09:14.899Z,1.90
2019-02-28T15:11:47.162Z,1.87
2019-02-28T15:14:14.449Z,2.13
2019-02-28T15:16:42.864Z,2.03
2019-02-28T15:19:11.610Z,2.80
2019-02-28T15:21:42.747Z,2.20
2019-02-28T15:24:11.436Z,2.93
2019-02-28T15:26:40.123Z,2.90
2019-02-28T15:29:09.307Z,3.00
2019-02-28T15:31:40.443Z,3.17
2019-02-28T15:34:08.379Z,3.40
2019-02-28T15:36:37.373Z,3.53
2019-02-28T15:39:07.175Z,3.20
2019-02-28T15:41:36.407Z,3.23
2019-02-28T15:44:05.443Z,2.80
2019-02-28T15:46:35.959Z,3.40
2019-02-28T15:49:06.561Z,3.33
2019-02-28T15:51:35.618Z,3.37
2019-02-28T15:54:04.334Z,3.40
2019-02-28T15:56:36.909Z,4.47
2019-02-28T15:59:05.754Z,3.50
2019-02-28T16:01:34.572Z,3.57
2019-02-28T16:04:03.219Z,3.63
2019-02-28T16:06:32.126Z,3.40
2019-02-28T16:09:00.875Z,3.17
2019-02-28T16:11:30.079Z,3.87
2019-02-28T16:14:00.458Z,3.90
2019-02-28T16:16:29.539Z,3.33
2019-02-28T16:18:58.359Z,4.53
2019-02-28T16:21:27.403Z,3.33
2019-02-28T16:23:56.747Z,3.30
2019-02-28T16:26:25.339Z,3.63
2019-02-28T16:28:54.659Z,3.17
2019-02-28T16:31:23.490Z,3.17
2019-02-28T16:33:52.150Z,3.00
2019-02-28T16:36:22.128Z,3.00
2019-02-28T16:38:51.382Z,5.67
2019-02-28T16:41:20.400Z,3.00
2019-02-28T16:43:49.066Z,2.50
2019-02-28T16:46:17.906Z,2.37
2019-02-28T16:48:46.738Z,2.73
2019-02-28T16:51:15.379Z,2.83
2019-02-28T16:53:47.959Z,3.13
2019-02-28T16:56:16.029Z,2.93
2019-02-28T16:58:44.599Z,2.90
2019-02-28T17:01:13.431Z,3.47
2019-02-28T17:03:42.809Z,3.40
2019-02-28T17:06:11.499Z,2.80
2019-02-28T17:08:48.246Z,2.70
2019-02-28T17:11:18.264Z,2.47
2019-02-28T17:13:53.870Z,2.57
2019-02-28T17:16:33.707Z,2.70
2019-02-28T17:19:02.101Z,2.83
2019-02-28T17:21:30.850Z,2.40
2019-02-28T17:23:59.964Z,1.90
2019-02-28T17:26:46.970Z,2.23
2019-02-28T17:29:25.114Z,2.13
2019-02-28T17:31:55.410Z,1.87
2019-02-28T17:34:25.186Z,1.93
2019-02-28T17:36:54.423Z,1.80
2019-02-28T17:39:23.464Z,3.93
2019-02-28T17:41:52.773Z,2.47
2019-02-28T17:44:40.959Z,2.20
2019-02-28T17:47:16.916Z,2.03
2019-02-28T17:50:05.569Z,1.80
2019-02-28T17:52:42.215Z,2.80
2019-02-28T17:55:31.067Z,35.67
2019-02-28T17:58:24.892Z,105.10
2019-02-28T18:01:07.147Z,120.77
2019-02-28T18:03:57.951Z,254.03
2019-02-28T18:06:47.281Z,73.00
2019-02-28T18:09:49.431Z,66.57
2019-02-28T18:12:49.931Z,75.00
2019-02-28T18:15:23.945Z,40.37
2019-02-28T18:18:10.346Z,22.57
2019-02-28T18:21:17.496Z,34.73
2019-02-28T18:24:06.842Z,11.87
2019-02-28T18:26:53.768Z,24.00
2019-02-28T18:29:34.197Z,17.27
2019-02-28T18:32:03.375Z,6.83
2019-02-28T18:34:33.434Z,6.03
2019-02-28T18:37:02.129Z,3.27
2019-02-28T18:39:30.807Z,3.57
2019-02-28T18:41:59.494Z,9.33
2019-02-28T18:44:28.309Z,21.43
2019-02-28T18:46:56.991Z,32.87
2019-02-28T18:49:26.685Z,31.83
2019-02-28T18:51:55.960Z,16.33
2019-02-28T18:54:24.647Z,102.60
2019-02-28T18:56:53.359Z,31.23
2019-02-28T18:59:22.137Z,29.20
2019-02-28T19:01:50.819Z,12.53
2019-02-28T19:04:19.637Z,3.73
2019-02-28T19:06:48.493Z,82.33
2019-02-28T19:09:23.790Z,12.23
2019-02-28T19:11:52.884Z,3.23
2019-02-28T19:14:21.693Z,2.80
2019-02-28T19:16:50.470Z,2.60
2019-02-28T19:19:19.145Z,2.70
2019-02-28T19:21:47.831Z,2.70
2019-02-28T19:24:16.519Z,3.33
2019-02-28T19:26:45.208Z,3.40
2019-02-28T19:29:13.877Z,3.03
2019-02-28T19:31:42.559Z,2.70
2019-02-28T19:34:11.268Z,4.07
2019-02-28T19:36:40.753Z,3.60
2019-02-28T19:39:09.437Z,3.80
2019-02-28T19:41:38.131Z,3.30
2019-02-28T19:44:06.817Z,3.00
2019-02-28T19:46:35.509Z,3.03
2019-02-28T19:49:04.175Z,3.17
2019-02-28T19:51:33.356Z,2.90
2019-02-28T19:54:02.176Z,3.13
2019-02-28T19:56:31.303Z,3.47
2019-02-28T19:58:59.975Z,2.70
2019-02-28T20:01:28.658Z,2.20
2019-02-28T20:03:57.356Z,4.20
2019-02-28T20:06:26.051Z,3.40
2019-02-28T20:08:54.780Z,2.50
2019-02-28T20:11:23.463Z,2.93
2019-02-28T20:13:52.158Z,2.67
2019-02-28T20:16:20.975Z,2.63
2019-02-28T20:18:50.495Z,3.30
2019-02-28T20:21:19.409Z,2.73
2019-02-28T20:23:49.117Z,2.83
2019-02-28T20:26:18.046Z,2.87
2019-02-28T20:28:47.495Z,2.40
2019-02-28T20:31:17.128Z,3.13
2019-02-28T20:33:45.887Z,3.07
2019-02-28T20:36:15.124Z,3.30
2019-02-28T20:38:44.724Z,4.40
2019-02-28T20:41:15.917Z,4.20
2019-02-28T20:43:44.628Z,3.80
2019-02-28T20:46:13.315Z,2.57
2019-02-28T20:48:42.002Z,3.20
2019-02-28T20:51:10.697Z,3.13
2019-02-28T20:53:39.521Z,3.93
2019-02-28T20:56:08.282Z,3.40
2019-02-28T20:58:37.069Z,2.57
2019-02-28T21:01:05.864Z,2.60
2019-02-28T21:03:34.527Z,3.33
2019-02-28T21:06:03.219Z,3.23
2019-02-28T21:08:31.867Z,2.93
2019-02-28T21:11:00.668Z,3.03
2019-02-28T21:13:29.800Z,3.20
2019-02-28T21:15:58.486Z,3.20
2019-02-28T21:18:27.135Z,3.07
2019-02-28T21:20:55.774Z,3.40
2019-02-28T21:23:24.340Z,3.00
2019-02-28T21:25:52.721Z,3.43
2019-02-28T21:28:21.195Z,3.60
2019-02-28T21:30:49.578Z,3.37
2019-02-28T21:33:17.950Z,3.10
2019-02-28T21:35:46.382Z,3.13
2019-02-28T21:38:14.806Z,2.77
2019-02-28T21:40:43.195Z,3.03
2019-02-28T21:43:11.519Z,2.83
2019-02-28T21:45:39.967Z,3.13
2019-02-28T21:48:08.411Z,2.83
2019-02-28T21:50:36.828Z,3.43
2019-02-28T21:53:05.262Z,3.43
2019-02-28T21:55:33.587Z,4.00
2019-02-28T21:58:01.927Z,3.50
2019-02-28T22:00:30.469Z,3.50
2019-02-28T22:02:58.790Z,3.40
2019-02-28T22:05:27.125Z,3.83
2019-02-28T22:07:55.438Z,4.10
2019-02-28T22:10:23.852Z,3.67
2019-02-28T22:12:52.190Z,3.87
2019-02-28T22:15:20.518Z,4.47
2019-02-28T22:17:48.979Z,4.37
2019-02-28T22:20:17.415Z,4.70
2019-02-28T22:22:45.854Z,4.00
2019-02-28T22:25:14.325Z,4.63
2019-02-28T22:27:43.143Z,4.73
2019-02-28T22:30:31.759Z,5.20
2019-02-28T22:33:01.939Z,4.60
2019-02-28T22:35:33.715Z,4.67
2019-02-28T22:38:02.050Z,4.63
2019-02-28T22:40:30.378Z,4.80
2019-02-28T22:42:59.299Z,4.47
2019-02-28T22:45:27.615Z,4.77
2019-02-28T22:47:55.939Z,4.50
2019-02-28T22:50:24.301Z,4.60
2019-02-28T22:52:53.883Z,4.70
2019-02-28T22:55:22.195Z,4.10
2019-02-28T22:57:50.548Z,4.40
2019-02-28T23:00:28.421Z,4.60
2019-02-28T23:02:56.739Z,3.93
2019-02-28T23:05:25.070Z,4.50
2019-02-28T23:07:53.395Z,4.60
2019-02-28T23:10:21.723Z,4.10
2019-02-28T23:12:50.135Z,4.50
2019-02-28T23:15:18.490Z,7.13
2019-02-28T23:17:46.818Z,4.27
2019-02-28T23:20:15.213Z,3.83
2019-02-28T23:22:43.523Z,3.90
2019-02-28T23:25:11.947Z,4.40
2019-02-28T23:27:40.304Z,4.60
2019-02-28T23:30:26.182Z,4.13
2019-02-28T23:32:59.398Z,4.23
2019-02-28T23:35:32.146Z,4.27
2019-02-28T23:38:00.483Z,5.03
2019-02-28T23:40:28.823Z,4.97
2019-02-28T23:42:57.157Z,4.00
2019-02-28T23:45:26.080Z,4.67
2019-02-28T23:47:54.411Z,4.37
2019-02-28T23:50:22.730Z,3.93
2019-02-28T23:52:51.057Z,4.57
2019-02-28T23:55:19.472Z,4.00
2019-02-28T23:57:47.808Z,4.27
